Wilbur Springs, California
Current Conditions -  °F | °C
As of 4:53 AM on Saturday 25 Oct 2014 (Local Time) from KMYV Reporting Station
Overcast Overcast  
Wind Chill: 63°   Ceiling: 5000
Heat Index: 63°   Visibility: 10mi
Dew Point: 52°   Wind: 15mph
Humidity: 67%   Direction: 130°SE
Pressure: 29.89"   Gusts: NA
Location:  39.1016°N, 122.307°W
Report Text: KMYV 251153Z AUTO 13013KT 10SM BKN050 OVC060 17/11 A2989 RMK AO2 SLP125 T01720111 10172 20150 55009 $
Loading
Personal Weather Stations






























Interactive Weather Map
Tropical Storm Tracking
New forecast layout! Learn more

10-Day Weather Forecast

Advertisements
Track Severe Weather on mobile